createdAt,value
2018-12-05T00:00:00.356Z,6.77
2018-12-05T00:05:05.728Z,6.20
2018-12-05T00:10:11.352Z,5.60
2018-12-05T00:15:18.317Z,6.80
2018-12-05T00:20:23.610Z,6.50
2018-12-05T00:25:28.959Z,6.23
2018-12-05T00:30:34.058Z,5.00
2018-12-05T00:35:38.128Z,7.63
2018-12-05T00:40:43.558Z,5.50
2018-12-05T00:45:48.217Z,8.17
2018-12-05T00:50:51.929Z,5.93
2018-12-05T00:55:56.029Z,5.67
2018-12-05T01:01:02.553Z,5.90
2018-12-05T01:06:07.871Z,5.63
2018-12-05T01:11:15.657Z,6.37
2018-12-05T01:16:20.671Z,10.87
2018-12-05T01:21:25.134Z,9.07
2018-12-05T01:26:30.741Z,9.93
2018-12-05T01:31:34.650Z,9.87
2018-12-05T01:36:39.470Z,6.40
2018-12-05T01:41:51.630Z,7.83
2018-12-05T01:46:56.992Z,4.90
2018-12-05T01:52:00.848Z,7.93
2018-12-05T01:57:07.069Z,7.23
2018-12-05T02:02:10.959Z,9.90
2018-12-05T02:07:15.325Z,11.70
2018-12-05T02:12:21.290Z,10.33
2018-12-05T02:17:25.279Z,12.13
2018-12-05T02:22:31.115Z,8.97
2018-12-05T02:27:35.622Z,12.33
2018-12-05T02:32:40.397Z,18.00
2018-12-05T02:37:46.922Z,38.07
2018-12-05T02:42:51.187Z,12.30
2018-12-05T02:47:57.147Z,11.43
2018-12-05T02:53:01.835Z,11.60
2018-12-05T02:58:07.709Z,8.17
2018-12-05T03:03:12.662Z,10.33
2018-12-05T03:08:16.706Z,6.20
2018-12-05T03:13:22.108Z,11.57
2018-12-05T03:18:26.999Z,8.77
2018-12-05T03:23:32.279Z,5.67
2018-12-05T03:28:37.317Z,6.93
2018-12-05T03:33:41.362Z,4.53
2018-12-05T03:38:47.083Z,6.10
2018-12-05T03:43:51.255Z,5.50
2018-12-05T03:48:56.277Z,6.70
2018-12-05T03:54:01.890Z,6.33
2018-12-05T03:59:06.017Z,7.63
2018-12-05T04:04:12.965Z,5.83
2018-12-05T04:09:17.225Z,5.27
2018-12-05T04:14:21.532Z,5.60
2018-12-05T04:19:25.759Z,6.50
2018-12-05T04:24:29.561Z,5.50
2018-12-05T04:29:33.247Z,4.83
2018-12-05T04:34:37.261Z,5.93
2018-12-05T04:39:41.378Z,8.03
2018-12-05T04:44:45.487Z,7.07
2018-12-05T04:49:49.597Z,6.70
2018-12-05T04:54:53.752Z,6.63
2018-12-05T04:59:57.847Z,8.80
2018-12-05T05:05:03.107Z,7.77
2018-12-05T05:10:07.440Z,11.07
2018-12-05T05:15:13.391Z,14.53
2018-12-05T05:20:17.876Z,20.23
2018-12-05T05:25:22.436Z,61.10
2018-12-05T05:30:26.525Z,12.67
2018-12-05T05:35:31.304Z,41.93
2018-12-05T05:40:36.191Z,26.67
2018-12-05T05:45:41.030Z,38.07
2018-12-05T05:50:46.171Z,38.07
2018-12-05T05:55:50.219Z,26.00
2018-12-05T06:00:54.339Z,20.53
2018-12-05T06:05:58.431Z,51.67
2018-12-05T06:11:02.551Z,22.33
2018-12-05T06:16:06.662Z,13.97
2018-12-05T06:21:10.760Z,20.60
2018-12-05T06:26:14.854Z,18.70
2018-12-05T06:31:18.626Z,12.37
2018-12-05T06:36:22.323Z,23.07
2018-12-05T06:41:26.010Z,32.53
2018-12-05T06:46:29.722Z,31.77
2018-12-05T06:51:33.407Z,53.83
2018-12-05T06:56:37.540Z,66.60
2018-12-05T07:01:41.641Z,41.63
2018-12-05T07:06:46.489Z,41.57
2018-12-05T07:11:50.631Z,57.13
2018-12-05T07:16:54.719Z,26.03
2018-12-05T07:21:58.806Z,53.07
2018-12-05T07:27:02.894Z,43.17
2018-12-05T07:32:06.667Z,36.63
2018-12-05T07:37:10.346Z,48.27
2018-12-05T07:42:14.034Z,45.83
2018-12-05T07:47:17.721Z,31.60
2018-12-05T07:52:21.411Z,44.13
2018-12-05T07:57:25.098Z,44.97
2018-12-05T08:02:29.190Z,38.50
2018-12-05T08:07:32.954Z,30.47
2018-12-05T08:12:36.969Z,59.60
2018-12-05T08:17:41.047Z,42.00
2018-12-05T08:22:44.826Z,62.77
2018-12-05T08:27:48.512Z,32.90
2018-12-05T08:32:52.191Z,50.33
2018-12-05T08:37:55.907Z,42.43
2018-12-05T08:42:59.912Z,25.37
2018-12-05T08:48:03.856Z,34.57
2018-12-05T08:53:07.620Z,24.67
2018-12-05T08:58:11.294Z,44.87
2018-12-05T09:03:14.993Z,36.57
2018-12-05T09:08:18.783Z,35.53
2018-12-05T09:13:22.491Z,43.63
2018-12-05T09:18:26.278Z,46.63
2018-12-05T09:23:30.305Z,30.60
2018-12-05T09:28:34.177Z,43.13
2018-12-05T09:33:37.882Z,36.30
2018-12-05T09:38:41.606Z,26.87
2018-12-05T09:43:45.313Z,39.97
2018-12-05T09:48:49.427Z,33.90
2018-12-05T09:53:53.210Z,25.10
2018-12-05T09:58:56.923Z,28.53
2018-12-05T10:04:01.058Z,26.10
2018-12-05T10:09:06.045Z,27.80
2018-12-05T10:14:12.044Z,33.90
2018-12-05T10:19:15.902Z,35.83
2018-12-05T10:24:20.582Z,37.60
2018-12-05T10:29:24.490Z,35.17
2018-12-05T10:34:28.186Z,27.23
2018-12-05T10:39:31.888Z,28.37
2018-12-05T10:44:35.714Z,23.00
2018-12-05T10:49:39.438Z,19.33
2018-12-05T10:54:43.125Z,19.27
2018-12-05T10:59:46.831Z,20.30
2018-12-05T11:04:55.906Z,16.60
2018-12-05T11:10:05.047Z,20.40
2018-12-05T11:15:14.070Z,20.63
2018-12-05T11:21:24.987Z,21.90
2018-12-05T11:26:30.990Z,15.00
2018-12-05T11:31:34.686Z,11.73
2018-12-05T11:36:39.943Z,12.43
2018-12-05T11:41:44.167Z,12.53
2018-12-05T11:46:48.602Z,13.87
2018-12-05T11:51:52.953Z,11.00
2018-12-05T11:56:56.849Z,12.53
2018-12-05T12:02:00.546Z,11.83
2018-12-05T12:07:04.253Z,12.60
2018-12-05T12:12:12.262Z,12.73
2018-12-05T12:17:15.939Z,10.40
2018-12-05T12:22:19.671Z,10.13
2018-12-05T12:27:23.366Z,9.63
2018-12-05T12:32:27.086Z,8.77
2018-12-05T12:37:31.101Z,9.30
2018-12-05T12:42:34.902Z,13.67
2018-12-05T12:47:38.918Z,11.00
2018-12-05T12:52:43.010Z,11.40
2018-12-05T12:57:46.778Z,10.60
2018-12-05T13:02:50.479Z,9.77
2018-12-05T13:07:54.163Z,12.30
2018-12-05T13:12:58.187Z,11.10
2018-12-05T13:18:01.971Z,12.33
2018-12-05T13:23:05.670Z,12.40
2018-12-05T13:28:10.347Z,16.73
2018-12-05T13:33:14.043Z,16.60
2018-12-05T13:38:17.728Z,20.17
2018-12-05T13:43:21.852Z,11.40
2018-12-05T13:48:25.948Z,15.57
2018-12-05T13:53:30.102Z,14.07
2018-12-05T13:58:34.122Z,17.17
2018-12-05T14:03:37.835Z,12.60
2018-12-05T14:08:41.662Z,13.50
2018-12-05T14:13:45.466Z,9.97
2018-12-05T14:18:49.195Z,10.27
2018-12-05T14:23:53.281Z,7.60
2018-12-05T14:28:57.610Z,9.37
2018-12-05T14:34:01.559Z,10.53
2018-12-05T14:39:06.790Z,11.30
2018-12-05T14:44:11.730Z,11.87
2018-12-05T14:49:16.689Z,7.47
2018-12-05T14:54:22.586Z,9.03
2018-12-05T14:59:26.402Z,11.80
2018-12-05T15:04:31.478Z,10.33
2018-12-05T15:09:35.845Z,14.00
2018-12-05T15:14:39.721Z,15.53
2018-12-05T15:19:44.038Z,11.00
2018-12-05T15:24:50.653Z,8.27
2018-12-05T15:29:54.469Z,9.53
2018-12-05T15:34:59.636Z,9.53
2018-12-05T15:40:04.117Z,8.43
2018-12-05T15:45:08.517Z,10.77
2018-12-05T15:50:13.902Z,9.73
2018-12-05T15:55:17.732Z,10.17
2018-12-05T16:00:22.654Z,7.13
2018-12-05T16:05:27.609Z,8.30
2018-12-05T16:10:31.602Z,9.93
2018-12-05T16:15:36.031Z,5.97
2018-12-05T16:20:40.464Z,15.13
2018-12-05T16:25:44.464Z,10.60
2018-12-05T16:30:48.347Z,8.93
2018-12-05T16:35:52.333Z,10.67
2018-12-05T16:40:56.375Z,14.57
2018-12-05T16:46:00.507Z,13.93
2018-12-05T16:51:04.382Z,10.27
2018-12-05T16:56:08.191Z,7.53
2018-12-05T17:01:11.895Z,10.83
2018-12-05T17:06:15.595Z,8.97
2018-12-05T17:11:19.807Z,13.60
2018-12-05T17:16:23.574Z,10.87
2018-12-05T17:21:27.448Z,9.20
2018-12-05T17:26:31.333Z,13.00
2018-12-05T17:31:36.513Z,8.23
2018-12-05T17:36:40.434Z,12.33
2018-12-05T17:41:44.505Z,11.13
2018-12-05T17:46:48.873Z,10.83
2018-12-05T17:51:52.693Z,11.47
2018-12-05T17:56:56.459Z,15.73
2018-12-05T18:02:00.200Z,10.57
2018-12-05T18:07:04.105Z,13.90
2018-12-05T18:12:08.038Z,16.63
2018-12-05T18:17:11.743Z,17.03
2018-12-05T18:22:15.469Z,14.80
2018-12-05T18:27:19.459Z,16.60
2018-12-05T18:32:23.555Z,12.83
2018-12-05T18:37:27.333Z,16.67
2018-12-05T18:42:31.024Z,15.13
2018-12-05T18:47:34.946Z,10.80
2018-12-05T18:52:38.639Z,14.43
2018-12-05T18:57:42.409Z,9.17
2018-12-05T19:02:46.122Z,9.07
2018-12-05T19:07:50.162Z,14.10
2018-12-05T19:12:54.602Z,12.93
2018-12-05T19:17:58.867Z,10.53
2018-12-05T19:23:02.590Z,10.67
2018-12-05T19:28:07.087Z,16.23
2018-12-05T19:33:11.008Z,10.73
2018-12-05T19:38:14.898Z,13.80
2018-12-05T19:43:18.590Z,10.80
2018-12-05T19:48:22.377Z,13.30
2018-12-05T19:53:26.278Z,16.30
2018-12-05T19:58:30.254Z,10.63
2018-12-05T20:03:33.930Z,9.70
2018-12-05T20:08:38.019Z,10.90
2018-12-05T20:13:41.734Z,10.23
2018-12-05T20:18:45.430Z,13.80
2018-12-05T20:23:49.174Z,9.93
2018-12-05T20:28:53.291Z,10.03
2018-12-05T20:33:57.135Z,8.70
2018-12-05T20:39:00.833Z,11.27
2018-12-05T20:44:05.734Z,9.87
2018-12-05T20:49:09.410Z,8.97
2018-12-05T20:54:13.126Z,14.17
2018-12-05T20:59:17.155Z,12.90
2018-12-05T21:04:21.139Z,8.73
2018-12-05T21:09:24.927Z,11.60
2018-12-05T21:14:28.646Z,10.77
2018-12-05T21:19:32.386Z,6.00
2018-12-05T21:24:36.369Z,8.73
2018-12-05T21:29:40.402Z,8.77
2018-12-05T21:34:44.174Z,8.57
2018-12-05T21:39:47.855Z,15.50
2018-12-05T21:44:52.307Z,5.37
2018-12-05T21:49:56.106Z,6.93
2018-12-05T21:54:59.815Z,8.43
2018-12-05T22:00:04.238Z,11.50
2018-12-05T22:05:09.953Z,9.03
2018-12-05T22:10:13.664Z,9.17
2018-12-05T22:15:17.365Z,8.50
2018-12-05T22:20:21.252Z,9.37
2018-12-05T22:25:24.952Z,8.00
2018-12-05T22:30:28.832Z,5.00
2018-12-05T22:35:32.992Z,8.97
2018-12-05T22:40:36.779Z,5.93
2018-12-05T22:45:40.598Z,8.93
2018-12-05T22:50:44.312Z,6.53
2018-12-05T22:55:48.009Z,6.93
2018-12-05T23:00:53.329Z,6.03
2018-12-05T23:05:57.979Z,10.43
2018-12-05T23:11:02.133Z,5.50
2018-12-05T23:16:07.094Z,6.50
2018-12-05T23:21:12.299Z,7.00
2018-12-05T23:26:18.783Z,7.63
2018-12-05T23:31:26.000Z,6.87
2018-12-05T23:36:32.315Z,5.30
2018-12-05T23:41:38.344Z,7.47
2018-12-05T23:46:44.044Z,8.60
2018-12-05T23:51:49.511Z,6.03
2018-12-05T23:56:53.714Z,6.57
